createdAt,value
2018-04-15T00:00:51.890Z,0
2018-04-15T00:01:52.137Z,0
2018-04-15T00:02:51.594Z,0
2018-04-15T00:03:52.073Z,0
2018-04-15T00:04:52.051Z,0
2018-04-15T00:05:52.030Z,0
2018-04-15T00:06:51.997Z,0
2018-04-15T00:07:51.978Z,0
2018-04-15T00:08:51.972Z,0
2018-04-15T00:09:51.701Z,0
2018-04-15T00:10:51.418Z,0
2018-04-15T00:11:51.935Z,0
2018-04-15T00:12:51.864Z,0
2018-04-15T00:13:51.374Z,0
2018-04-15T00:14:51.817Z,0
2018-04-15T00:15:51.803Z,0
2018-04-15T00:16:51.029Z,0
2018-04-15T00:17:51.524Z,0
2018-04-15T00:18:51.489Z,0
2018-04-15T00:19:51.210Z,0
2018-04-15T00:20:51.710Z,0
2018-04-15T00:21:51.664Z,0
2018-04-15T00:22:51.702Z,0
2018-04-15T00:23:51.621Z,0
2018-04-15T00:24:51.603Z,0
2018-04-15T00:25:51.322Z,0
2018-04-15T00:26:51.306Z,0
2018-04-15T00:27:51.288Z,0
2018-04-15T00:28:51.513Z,0
2018-04-15T00:29:51.486Z,0
2018-04-15T00:30:51.465Z,0
2018-04-15T00:31:51.444Z,0
2018-04-15T00:32:51.165Z,0
2018-04-15T00:33:51.395Z,0
2018-04-15T00:34:51.372Z,0
2018-04-15T00:35:51.357Z,0
2018-04-15T00:36:51.087Z,0
2018-04-15T00:37:50.816Z,0
2018-04-15T00:38:51.280Z,0
2018-04-15T00:39:51.255Z,0
2018-04-15T00:40:50.991Z,0
2018-04-15T00:41:50.965Z,0
2018-04-15T00:42:50.958Z,0
2018-04-15T00:43:51.168Z,0
2018-04-15T00:44:51.149Z,0
2018-04-15T00:45:51.123Z,0
2018-04-15T00:46:50.854Z,0
2018-04-15T00:47:50.863Z,0
2018-04-15T00:48:50.807Z,0
2018-04-15T00:49:51.031Z,0
2018-04-15T00:50:51.009Z,0
2018-04-15T00:51:50.244Z,0
2018-04-15T00:52:50.970Z,0
2018-04-15T00:53:50.940Z,0
2018-04-15T00:54:51.019Z,0
2018-04-15T00:55:50.401Z,0
2018-04-15T00:56:50.882Z,0
2018-04-15T00:57:50.855Z,0
2018-04-15T00:58:50.834Z,0
2018-04-15T00:59:50.317Z,0
2018-04-15T01:00:50.543Z,0
2018-04-15T01:01:50.769Z,0
2018-04-15T01:02:50.740Z,0
2018-04-15T01:03:50.223Z,0
2018-04-15T01:04:50.457Z,0
2018-04-15T01:05:50.188Z,0
2018-04-15T01:06:50.653Z,0
2018-04-15T01:07:50.645Z,0
2018-04-15T01:08:50.608Z,0
2018-04-15T01:09:50.589Z,0
2018-04-15T01:10:50.312Z,0
2018-04-15T01:11:50.342Z,0
2018-04-15T01:12:50.034Z,0
2018-04-15T01:13:49.998Z,0
2018-04-15T01:14:50.229Z,0
2018-04-15T01:15:50.454Z,0
2018-04-15T01:16:50.429Z,0
2018-04-15T01:17:50.410Z,0
2018-04-15T01:18:50.381Z,0
2018-04-15T01:19:50.113Z,0
2018-04-15T01:20:50.099Z,0
2018-04-15T01:21:50.317Z,0
2018-04-15T01:22:49.804Z,0
2018-04-15T01:23:50.277Z,0
2018-04-15T01:24:50.001Z,0
2018-04-15T01:25:49.975Z,0
2018-04-15T01:26:49.953Z,0
2018-04-15T01:27:50.179Z,0
2018-04-15T01:28:50.154Z,0
2018-04-15T01:29:50.237Z,0
2018-04-15T01:30:50.112Z,0
2018-04-15T01:31:49.595Z,0
2018-04-15T01:32:50.065Z,0
2018-04-15T01:33:49.549Z,0
2018-04-15T01:34:50.020Z,0
2018-04-15T01:35:49.999Z,0
2018-04-15T01:36:49.979Z,0
2018-04-15T01:37:49.955Z,0
2018-04-15T01:38:49.437Z,0
2018-04-15T01:39:49.661Z,0
2018-04-15T01:40:49.392Z,0
2018-04-15T01:41:49.365Z,0
2018-04-15T01:42:49.616Z,0
2018-04-15T01:43:49.812Z,0
2018-04-15T01:44:49.547Z,0
2018-04-15T01:45:49.272Z,0
2018-04-15T01:46:49.503Z,0
2018-04-15T01:47:49.732Z,0
2018-04-15T01:48:49.463Z,0
2018-04-15T01:49:49.537Z,0
2018-04-15T01:50:49.414Z,0
2018-04-15T01:51:49.397Z,0
2018-04-15T01:52:49.373Z,0
2018-04-15T01:53:49.598Z,0
2018-04-15T01:54:49.571Z,0
2018-04-15T01:55:49.302Z,0
2018-04-15T01:56:49.535Z,0
2018-04-15T01:57:49.255Z,0
2018-04-15T01:58:49.500Z,0
2018-04-15T01:59:49.456Z,0
2018-04-15T02:00:49.441Z,0
2018-04-15T02:01:49.161Z,0
2018-04-15T02:02:49.394Z,0
2018-04-15T02:03:49.387Z,0
2018-04-15T02:04:49.338Z,0
2018-04-15T02:05:49.323Z,0
2018-04-15T02:06:49.101Z,0
2018-04-15T02:07:49.031Z,0
2018-04-15T02:08:48.760Z,0
2018-04-15T02:09:49.232Z,0
2018-04-15T02:10:49.215Z,0
2018-04-15T02:11:49.188Z,0
2018-04-15T02:12:48.696Z,0
2018-04-15T02:13:49.144Z,0
2018-04-15T02:14:49.124Z,0
2018-04-15T02:15:49.193Z,0
2018-04-15T02:16:48.824Z,0
2018-04-15T02:17:49.053Z,0
2018-04-15T02:18:49.030Z,0
2018-04-15T02:19:48.758Z,0
2018-04-15T02:20:48.739Z,0
2018-04-15T02:21:48.977Z,0
2018-04-15T02:22:48.940Z,0
2018-04-15T02:23:48.921Z,0
2018-04-15T02:24:48.898Z,0
2018-04-15T02:25:48.628Z,0
2018-04-15T02:26:48.358Z,0
2018-04-15T02:27:48.091Z,0
2018-04-15T02:28:48.562Z,0
2018-04-15T02:29:48.090Z,0
2018-04-15T02:30:48.775Z,0
2018-04-15T02:31:48.498Z,0
2018-04-15T02:32:48.729Z,0
2018-04-15T02:33:48.892Z,0
2018-04-15T02:34:48.684Z,0
2018-04-15T02:35:48.663Z,0
2018-04-15T02:36:48.636Z,0
2018-04-15T02:37:48.365Z,0
2018-04-15T02:38:48.353Z,0
2018-04-15T02:39:48.579Z,0
2018-04-15T02:40:48.292Z,0
2018-04-15T02:41:48.023Z,0
2018-04-15T02:42:48.507Z,0
2018-04-15T02:43:47.982Z,0
2018-04-15T02:44:48.464Z,0
2018-04-15T02:45:48.192Z,0
2018-04-15T02:46:48.418Z,0
2018-04-15T02:47:48.396Z,0
2018-04-15T02:48:48.368Z,0
2018-04-15T02:49:48.098Z,0
2018-04-15T02:50:48.334Z,0
2018-04-15T02:51:48.315Z,0
2018-04-15T02:52:48.277Z,0
2018-04-15T02:53:48.255Z,0
2018-04-15T02:54:48.247Z,0
2018-04-15T02:55:48.212Z,0
2018-04-15T02:56:47.974Z,0
2018-04-15T02:57:47.671Z,0
2018-04-15T02:58:48.149Z,0
2018-04-15T02:59:48.130Z,0
2018-04-15T03:00:47.604Z,0
2018-04-15T03:01:48.072Z,0
2018-04-15T03:02:48.070Z,0
2018-04-15T03:03:48.033Z,0
2018-04-15T03:04:47.836Z,0
2018-04-15T03:05:47.779Z,0
2018-04-15T03:06:47.471Z,0
2018-04-15T03:07:47.454Z,0
2018-04-15T03:08:47.673Z,0
2018-04-15T03:09:47.905Z,0
2018-04-15T03:10:47.878Z,0
2018-04-15T03:11:47.609Z,0
2018-04-15T03:12:47.840Z,0
2018-04-15T03:13:47.314Z,0
2018-04-15T03:14:47.791Z,0
2018-04-15T03:15:47.763Z,0
2018-04-15T03:16:47.489Z,0
2018-04-15T03:17:47.480Z,0
2018-04-15T03:18:47.690Z,0
2018-04-15T03:19:47.177Z,0
2018-04-15T03:20:47.649Z,0
2018-04-15T03:21:47.633Z,0
2018-04-15T03:22:47.624Z,0
2018-04-15T03:23:47.584Z,0
2018-04-15T03:24:47.313Z,0
2018-04-15T03:25:47.049Z,0
2018-04-15T03:26:47.517Z,0
2018-04-15T03:27:47.497Z,0
2018-04-15T03:28:46.978Z,0
2018-04-15T03:29:47.200Z,0
2018-04-15T03:30:47.192Z,0
2018-04-15T03:31:47.189Z,0
2018-04-15T03:32:46.892Z,0
2018-04-15T03:33:47.353Z,0
2018-04-15T03:34:47.144Z,0
2018-04-15T03:35:47.314Z,0
2018-04-15T03:36:47.050Z,0
2018-04-15T03:37:47.040Z,0
2018-04-15T03:38:47.003Z,0
2018-04-15T03:39:47.232Z,0
2018-04-15T03:40:46.958Z,0
2018-04-15T03:41:46.930Z,0
2018-04-15T03:42:46.914Z,0
2018-04-15T03:43:46.890Z,0
2018-04-15T03:44:46.874Z,0
2018-04-15T03:45:46.596Z,0
2018-04-15T03:46:46.823Z,0
2018-04-15T03:47:47.057Z,0
2018-04-15T03:48:47.033Z,0
2018-04-15T03:49:47.022Z,0
2018-04-15T03:50:47.001Z,0
2018-04-15T03:51:46.713Z,0
2018-04-15T03:52:46.696Z,0
2018-04-15T03:53:46.931Z,0
2018-04-15T03:54:46.913Z,0
2018-04-15T03:55:46.876Z,0
2018-04-15T03:56:46.603Z,0
2018-04-15T03:57:46.083Z,0
2018-04-15T03:58:46.315Z,0
2018-04-15T03:59:46.783Z,0
2018-04-15T04:00:46.770Z,0
2018-04-15T04:01:46.764Z,0
2018-04-15T04:02:46.468Z,0
2018-04-15T04:03:46.196Z,0
2018-04-15T04:04:46.676Z,0
2018-04-15T04:05:46.409Z,0
2018-04-15T04:06:46.628Z,0
2018-04-15T04:07:46.395Z,0
2018-04-15T04:08:45.832Z,0
2018-04-15T04:09:46.565Z,0
2018-04-15T04:10:46.296Z,0
2018-04-15T04:11:46.267Z,0
2018-04-15T04:12:46.250Z,0
2018-04-15T04:13:46.227Z,0
2018-04-15T04:14:45.953Z,0
2018-04-15T04:15:45.684Z,0
2018-04-15T04:16:46.406Z,0
2018-04-15T04:17:46.139Z,0
2018-04-15T04:18:46.365Z,0
2018-04-15T04:19:46.086Z,0
2018-04-15T04:20:46.324Z,0
2018-04-15T04:21:46.294Z,0
2018-04-15T04:22:46.283Z,0
2018-04-15T04:23:46.252Z,0
2018-04-15T04:24:46.230Z,0
2018-04-15T04:25:45.709Z,0
2018-04-15T04:26:45.683Z,0
2018-04-15T04:27:45.673Z,0
2018-04-15T04:28:46.142Z,0
2018-04-15T04:29:45.870Z,0
2018-04-15T04:30:45.595Z,0
2018-04-15T04:31:45.827Z,0
2018-04-15T04:32:45.551Z,0
2018-04-15T04:33:46.030Z,0
2018-04-15T04:34:46.004Z,0
2018-04-15T04:35:45.992Z,0
2018-04-15T04:36:45.960Z,0
2018-04-15T04:37:45.442Z,0
2018-04-15T04:38:45.937Z,0
2018-04-15T04:39:45.900Z,0
2018-04-15T04:40:45.873Z,0
2018-04-15T04:41:45.598Z,0
2018-04-15T04:42:45.828Z,0
2018-04-15T04:43:45.063Z,0
2018-04-15T04:44:45.784Z,0
2018-04-15T04:45:45.263Z,0
2018-04-15T04:46:45.744Z,5
2018-04-15T04:47:45.471Z,5
2018-04-15T04:48:45.693Z,5
2018-04-15T04:49:45.664Z,5
2018-04-15T04:50:45.398Z,5
2018-04-15T04:51:45.622Z,5
2018-04-15T04:52:44.859Z,5
2018-04-15T04:53:45.381Z,5
2018-04-15T04:54:45.306Z,5
2018-04-15T04:55:45.282Z,5
2018-04-15T04:56:45.272Z,5
2018-04-15T04:57:45.507Z,10
2018-04-15T04:58:45.462Z,10
2018-04-15T04:59:45.459Z,10
2018-04-15T05:00:45.172Z,10
2018-04-15T05:01:45.403Z,10
2018-04-15T05:02:45.127Z,10
2018-04-15T05:03:45.104Z,10
2018-04-15T05:04:45.337Z,10
2018-04-15T05:05:45.058Z,10
2018-04-15T05:06:44.794Z,10
2018-04-15T05:07:45.078Z,10
2018-04-15T05:08:44.746Z,10
2018-04-15T05:09:44.719Z,10
2018-04-15T05:10:44.949Z,10
2018-04-15T05:11:45.176Z,10
2018-04-15T05:12:45.147Z,10
2018-04-15T05:13:45.126Z,10
2018-04-15T05:14:44.655Z,10
2018-04-15T05:15:45.191Z,15
2018-04-15T05:16:45.066Z,15
2018-04-15T05:17:44.798Z,15
2018-04-15T05:18:44.774Z,15
2018-04-15T05:19:44.998Z,10
2018-04-15T05:20:44.476Z,10
2018-04-15T05:21:44.453Z,15
2018-04-15T05:22:44.679Z,15
2018-04-15T05:23:44.900Z,15
2018-04-15T05:24:44.886Z,15
2018-04-15T05:25:44.618Z,20
2018-04-15T05:26:44.591Z,25
2018-04-15T05:27:44.828Z,25
2018-04-15T05:28:44.793Z,25
2018-04-15T05:29:44.527Z,25
2018-04-15T05:30:44.746Z,25
2018-04-15T05:31:44.723Z,25
2018-04-15T05:32:44.704Z,30
2018-04-15T05:33:44.474Z,35
2018-04-15T05:34:44.168Z,40
2018-04-15T05:35:44.648Z,45
2018-04-15T05:36:44.370Z,45
2018-04-15T05:37:44.423Z,45
2018-04-15T05:38:44.321Z,45
2018-04-15T05:39:44.550Z,50
2018-04-15T05:40:44.530Z,50
2018-04-15T05:41:44.500Z,55
2018-04-15T05:42:44.483Z,55
2018-04-15T05:43:44.226Z,55
2018-04-15T05:44:44.196Z,60
2018-04-15T05:45:44.414Z,60
2018-04-15T05:46:44.150Z,60
2018-04-15T05:47:44.297Z,65
2018-04-15T05:48:44.346Z,65
2018-04-15T05:49:44.081Z,65
2018-04-15T05:50:44.058Z,65
2018-04-15T05:51:44.273Z,70
2018-04-15T05:52:44.002Z,70
2018-04-15T05:53:44.234Z,70
2018-04-15T05:54:44.208Z,75
2018-04-15T05:55:44.188Z,80
2018-04-15T05:56:43.670Z,85
2018-04-15T05:57:44.143Z,90
2018-04-15T05:58:44.124Z,90
2018-04-15T05:59:43.955Z,90
2018-04-15T06:00:44.082Z,85
2018-04-15T06:01:43.809Z,85
2018-04-15T06:02:43.799Z,80
2018-04-15T06:03:43.508Z,80
2018-04-15T06:04:43.494Z,75
2018-04-15T06:05:43.468Z,75
2018-04-15T06:06:43.692Z,75
2018-04-15T06:07:43.767Z,80
2018-04-15T06:08:43.147Z,85
2018-04-15T06:09:43.887Z,85
2018-04-15T06:10:43.864Z,90
2018-04-15T06:11:43.577Z,100
2018-04-15T06:12:43.557Z,105
2018-04-15T06:13:43.288Z,110
2018-04-15T06:14:43.767Z,110
2018-04-15T06:15:43.497Z,115
2018-04-15T06:16:43.731Z,120
2018-04-15T06:17:43.454Z,130
2018-04-15T06:18:43.679Z,135
2018-04-15T06:19:43.658Z,145
2018-04-15T06:20:43.633Z,150
2018-04-15T06:21:43.601Z,150
2018-04-15T06:22:43.591Z,150
2018-04-15T06:23:43.065Z,150
2018-04-15T06:24:43.446Z,145
2018-04-15T06:25:43.517Z,145
2018-04-15T06:26:43.251Z,145
2018-04-15T06:27:42.980Z,145
2018-04-15T06:28:43.457Z,150
2018-04-15T06:29:43.441Z,150
2018-04-15T06:30:43.413Z,155
2018-04-15T06:31:42.897Z,155
2018-04-15T06:32:43.365Z,150
2018-04-15T06:33:43.105Z,145
2018-04-15T06:34:42.825Z,145
2018-04-15T06:35:43.048Z,145
2018-04-15T06:36:43.520Z,140
2018-04-15T06:37:43.004Z,145
2018-04-15T06:38:43.235Z,150
2018-04-15T06:39:43.208Z,155
2018-04-15T06:40:42.989Z,160
2018-04-15T06:41:43.166Z,160
2018-04-15T06:42:42.398Z,160
2018-04-15T06:43:43.135Z,160
2018-04-15T06:44:43.110Z,155
2018-04-15T06:45:43.087Z,150
2018-04-15T06:46:43.066Z,150
2018-04-15T06:47:43.037Z,150
2018-04-15T06:48:43.013Z,155
2018-04-15T06:49:42.748Z,160
2018-04-15T06:50:42.974Z,175
2018-04-15T06:51:42.951Z,175
2018-04-15T06:52:42.928Z,180
2018-04-15T06:53:42.404Z,185
2018-04-15T06:54:42.638Z,185
2018-04-15T06:55:42.924Z,180
2018-04-15T06:56:42.339Z,180
2018-04-15T06:57:42.575Z,185
2018-04-15T06:58:42.553Z,200
2018-04-15T06:59:42.769Z,220
2018-04-15T07:00:42.745Z,250
2018-04-15T07:01:42.889Z,275
2018-04-15T07:02:42.461Z,300
2018-04-15T07:03:42.689Z,320
2018-04-15T07:04:42.174Z,335
2018-04-15T07:05:42.840Z,355
2018-04-15T07:06:42.381Z,375
2018-04-15T07:07:42.353Z,390
2018-04-15T07:08:42.322Z,405
2018-04-15T07:09:42.864Z,415
2018-04-15T07:10:41.786Z,405
2018-04-15T07:11:42.509Z,405
2018-04-15T07:12:42.510Z,415
2018-04-15T07:13:42.496Z,420
2018-04-15T07:14:42.455Z,435
2018-04-15T07:15:42.435Z,450
2018-04-15T07:16:42.505Z,475
2018-04-15T07:17:42.410Z,500
2018-04-15T07:18:42.116Z,515
2018-04-15T07:19:42.349Z,535
2018-04-15T07:20:42.323Z,550
2018-04-15T07:21:42.458Z,570
2018-04-15T07:22:42.277Z,575
2018-04-15T07:23:42.262Z,570
2018-04-15T07:24:41.776Z,550
2018-04-15T07:25:41.974Z,525
2018-04-15T07:26:42.281Z,510
2018-04-15T07:27:41.682Z,510
2018-04-15T07:28:41.905Z,515
2018-04-15T07:29:42.148Z,515
2018-04-15T07:30:42.139Z,510
2018-04-15T07:31:42.101Z,510
2018-04-15T07:32:41.833Z,520
2018-04-15T07:33:42.154Z,535
2018-04-15T07:34:41.799Z,550
2018-04-15T07:35:42.022Z,565
2018-04-15T07:36:42.360Z,575
2018-04-15T07:37:41.985Z,585
2018-04-15T07:38:41.962Z,600
2018-04-15T07:39:41.950Z,605
2018-04-15T07:40:41.922Z,610
2018-04-15T07:41:41.405Z,625
2018-04-15T07:42:41.875Z,630
2018-04-15T07:43:41.855Z,640
2018-04-15T07:44:41.340Z,660
2018-04-15T07:45:41.819Z,690
2018-04-15T07:46:41.552Z,715
2018-04-15T07:47:41.790Z,740
2018-04-15T07:48:41.552Z,770
2018-04-15T07:49:41.839Z,780
2018-04-15T07:50:41.742Z,780
2018-04-15T07:51:41.702Z,770
2018-04-15T07:52:41.691Z,760
2018-04-15T07:53:41.164Z,770
2018-04-15T07:54:41.147Z,775
2018-04-15T07:55:41.631Z,785
2018-04-15T07:56:41.613Z,785
2018-04-15T07:57:41.099Z,800
2018-04-15T07:58:41.320Z,825
2018-04-15T07:59:41.301Z,850
2018-04-15T08:00:41.291Z,895
2018-04-15T08:01:41.567Z,905
2018-04-15T08:02:41.256Z,930
2018-04-15T08:03:41.240Z,990
2018-04-15T08:04:40.962Z,975
2018-04-15T08:05:41.200Z,985
2018-04-15T08:06:41.204Z,965
2018-04-15T08:07:41.476Z,985
2018-04-15T08:08:41.387Z,1025
2018-04-15T08:09:41.129Z,1025
2018-04-15T08:10:41.111Z,1040
2018-04-15T08:11:41.089Z,1040
2018-04-15T08:12:40.828Z,1040
2018-04-15T08:13:40.808Z,1000
2018-04-15T08:14:40.796Z,1020
2018-04-15T08:15:41.032Z,1015
2018-04-15T08:16:40.758Z,985
2018-04-15T08:17:40.738Z,975
2018-04-15T08:18:41.223Z,975
2018-04-15T08:19:41.206Z,965
2018-04-15T08:20:41.211Z,935
2018-04-15T08:21:40.934Z,950
2018-04-15T08:22:40.666Z,920
2018-04-15T08:23:40.899Z,900
2018-04-15T08:24:41.127Z,910
2018-04-15T08:25:40.864Z,885
2018-04-15T08:26:41.089Z,825
2018-04-15T08:27:41.085Z,825
2018-04-15T08:28:40.565Z,785
2018-04-15T08:29:41.056Z,790
2018-04-15T08:30:41.036Z,730
2018-04-15T08:31:40.785Z,765
2018-04-15T08:32:40.753Z,810
2018-04-15T08:33:40.976Z,770
2018-04-15T08:34:40.971Z,765
2018-04-15T08:35:40.955Z,860
2018-04-15T08:36:40.688Z,815
2018-04-15T08:37:40.707Z,740
2018-04-15T08:38:40.904Z,665
2018-04-15T08:39:40.642Z,670
2018-04-15T08:40:40.618Z,665
2018-04-15T08:41:40.604Z,635
2018-04-15T08:42:40.934Z,565
2018-04-15T08:43:40.321Z,555
2018-04-15T08:44:40.799Z,525
2018-04-15T08:45:40.545Z,515
2018-04-15T08:46:40.772Z,505
2018-04-15T08:47:40.502Z,485
2018-04-15T08:48:40.485Z,485
2018-04-15T08:49:40.717Z,455
2018-04-15T08:50:40.216Z,430
2018-04-15T08:51:40.678Z,430
2018-04-15T08:52:40.428Z,450
2018-04-15T08:53:40.408Z,480
2018-04-15T08:54:40.828Z,490
2018-04-15T08:55:40.368Z,460
2018-04-15T08:56:40.606Z,450
2018-04-15T08:57:40.616Z,460
2018-04-15T08:58:40.559Z,475
2018-04-15T08:59:40.293Z,480
2018-04-15T09:00:40.667Z,490
2018-04-15T09:01:40.266Z,520
2018-04-15T09:02:40.246Z,540
2018-04-15T09:03:40.473Z,600
2018-04-15T09:04:40.451Z,710
2018-04-15T09:05:40.201Z,755
2018-04-15T09:06:40.177Z,725
2018-04-15T09:07:40.409Z,720
2018-04-15T09:08:40.141Z,600
2018-04-15T09:09:40.377Z,535
2018-04-15T09:10:40.110Z,600
2018-04-15T09:11:40.102Z,705
2018-04-15T09:12:40.080Z,660
2018-04-15T09:13:40.334Z,645
2018-04-15T09:14:40.277Z,635
2018-04-15T09:15:40.160Z,555
2018-04-15T09:16:40.252Z,525
2018-04-15T09:17:40.231Z,545
2018-04-15T09:18:39.966Z,560
2018-04-15T09:19:39.704Z,610
2018-04-15T09:20:40.180Z,670
2018-04-15T09:21:40.164Z,700
2018-04-15T09:22:39.896Z,705
2018-04-15T09:23:39.890Z,705
2018-04-15T09:24:40.107Z,635
2018-04-15T09:25:39.836Z,540
2018-04-15T09:26:40.076Z,505
2018-04-15T09:27:39.804Z,480
2018-04-15T09:28:40.035Z,465
2018-04-15T09:29:39.674Z,465
2018-04-15T09:30:40.020Z,475
2018-04-15T09:31:39.756Z,535
2018-04-15T09:32:39.751Z,580
2018-04-15T09:33:39.975Z,635
2018-04-15T09:34:39.443Z,665
2018-04-15T09:35:40.060Z,650
2018-04-15T09:36:39.410Z,655
2018-04-15T09:37:39.394Z,630
2018-04-15T09:38:39.873Z,595
2018-04-15T09:39:39.848Z,560
2018-04-15T09:40:39.348Z,555
2018-04-15T09:41:39.342Z,560
2018-04-15T09:42:39.802Z,555
2018-04-15T09:43:39.288Z,550
2018-04-15T09:44:39.773Z,590
2018-04-15T09:45:39.776Z,660
2018-04-15T09:46:39.480Z,675
2018-04-15T09:47:38.972Z,670
2018-04-15T09:48:39.450Z,645
2018-04-15T09:49:39.181Z,600
2018-04-15T09:50:39.416Z,580
2018-04-15T09:51:39.639Z,605
2018-04-15T09:52:39.815Z,620
2018-04-15T09:53:39.400Z,625
2018-04-15T09:54:39.346Z,585
2018-04-15T09:55:39.313Z,580
2018-04-15T09:56:39.051Z,555
2018-04-15T09:57:39.063Z,535
2018-04-15T09:58:39.279Z,540
2018-04-15T09:59:39.009Z,540
2018-04-15T10:00:39.013Z,555
2018-04-15T10:01:39.483Z,550
2018-04-15T10:02:39.470Z,525
2018-04-15T10:03:39.207Z,540
2018-04-15T10:04:38.967Z,575
2018-04-15T10:05:39.167Z,580
2018-04-15T10:06:39.146Z,575
2018-04-15T10:07:41.314Z,565
2018-04-15T10:08:39.096Z,560
2018-04-15T10:09:39.336Z,570
2018-04-15T10:10:39.337Z,595
2018-04-15T10:11:39.059Z,600
2018-04-15T10:12:39.044Z,610
2018-04-15T10:13:39.278Z,655
2018-04-15T10:14:39.006Z,685
2018-04-15T10:15:38.737Z,725
2018-04-15T10:16:39.231Z,755
2018-04-15T10:17:38.452Z,745
2018-04-15T10:18:38.939Z,740
2018-04-15T10:19:39.167Z,745
2018-04-15T10:20:38.657Z,730
2018-04-15T10:21:38.408Z,760
2018-04-15T10:22:38.884Z,745
2018-04-15T10:23:38.597Z,740
2018-04-15T10:24:38.589Z,740
2018-04-15T10:25:38.574Z,725
2018-04-15T10:26:38.808Z,725
2018-04-15T10:27:38.538Z,735
2018-04-15T10:28:38.772Z,740
2018-04-15T10:29:38.504Z,755
2018-04-15T10:30:38.747Z,765
2018-04-15T10:31:38.985Z,760
2018-04-15T10:32:38.518Z,760
2018-04-15T10:33:38.454Z,770
2018-04-15T10:34:38.925Z,745
2018-04-15T10:35:38.666Z,755
2018-04-15T10:36:38.934Z,795
2018-04-15T10:37:38.632Z,815
2018-04-15T10:38:38.376Z,810
2018-04-15T10:39:39.816Z,710
2018-04-15T10:40:39.311Z,645
2018-04-15T10:41:38.826Z,630
2018-04-15T10:42:38.815Z,625
2018-04-15T10:43:38.562Z,670
2018-04-15T10:44:38.292Z,675
2018-04-15T10:45:38.571Z,625
2018-04-15T10:46:38.251Z,570
2018-04-15T10:47:38.748Z,565
2018-04-15T10:48:38.729Z,550
2018-04-15T10:49:38.707Z,555
2018-04-15T10:50:38.687Z,555
2018-04-15T10:51:38.421Z,565
2018-04-15T10:52:38.669Z,570
2018-04-15T10:53:38.143Z,570
2018-04-15T10:54:38.662Z,575
2018-04-15T10:55:38.119Z,595
2018-04-15T10:56:38.355Z,635
2018-04-15T10:57:38.600Z,680
2018-04-15T10:58:38.552Z,730
2018-04-15T10:59:38.045Z,750
2018-04-15T11:00:38.540Z,780
2018-04-15T11:01:38.522Z,825
2018-04-15T11:02:38.241Z,855
2018-04-15T11:03:37.992Z,885
2018-04-15T11:04:38.230Z,920
2018-04-15T11:05:37.960Z,960
2018-04-15T11:06:38.186Z,965
2018-04-15T11:07:38.444Z,910
2018-04-15T11:08:38.437Z,900
2018-04-15T11:09:38.145Z,880
2018-04-15T11:10:37.881Z,825
2018-04-15T11:11:37.867Z,750
2018-04-15T11:12:37.602Z,730
2018-04-15T11:13:37.834Z,745
2018-04-15T11:14:38.074Z,740
2018-04-15T11:15:38.317Z,715
2018-04-15T11:16:37.793Z,715
2018-04-15T11:17:38.040Z,720
2018-04-15T11:18:38.314Z,715
2018-04-15T11:19:38.709Z,700
2018-04-15T11:20:37.742Z,745
2018-04-15T11:21:37.977Z,775
2018-04-15T11:22:38.214Z,755
2018-04-15T11:23:37.434Z,780
2018-04-15T11:24:37.684Z,775
2018-04-15T11:25:37.905Z,750
2018-04-15T11:26:38.139Z,725
2018-04-15T11:27:38.129Z,700
2018-04-15T11:28:37.861Z,675
2018-04-15T11:29:38.096Z,700
2018-04-15T11:30:38.071Z,735
2018-04-15T11:31:38.061Z,795
2018-04-15T11:32:37.660Z,830
2018-04-15T11:33:37.789Z,880
2018-04-15T11:34:37.764Z,920
2018-04-15T11:35:37.747Z,945
2018-04-15T11:36:38.030Z,955
2018-04-15T11:37:37.960Z,965
2018-04-15T11:38:37.806Z,950
2018-04-15T11:39:37.942Z,910
2018-04-15T11:40:37.672Z,860
2018-04-15T11:41:37.422Z,840
2018-04-15T11:42:37.647Z,840
2018-04-15T11:43:37.641Z,845
2018-04-15T11:44:37.613Z,840
2018-04-15T11:45:37.855Z,825
2018-04-15T11:46:37.392Z,825
2018-04-15T11:47:37.569Z,825
2018-04-15T11:48:37.824Z,825
2018-04-15T11:49:37.541Z,790
2018-04-15T11:50:37.783Z,770
2018-04-15T11:51:38.215Z,785
2018-04-15T11:52:37.501Z,745
2018-04-15T11:53:37.488Z,690
2018-04-15T11:54:37.476Z,660
2018-04-15T11:55:37.705Z,690
2018-04-15T11:56:37.447Z,755
2018-04-15T11:57:37.681Z,815
2018-04-15T11:58:37.909Z,840
2018-04-15T11:59:37.649Z,865
2018-04-15T12:00:37.639Z,875
2018-04-15T12:01:37.618Z,845
2018-04-15T12:02:37.372Z,775
2018-04-15T12:03:37.352Z,785
2018-04-15T12:04:37.083Z,780
2018-04-15T12:05:37.574Z,780
2018-04-15T12:06:37.559Z,770
2018-04-15T12:07:37.547Z,765
2018-04-15T12:08:37.284Z,725
2018-04-15T12:09:37.260Z,685
2018-04-15T12:10:37.506Z,715
2018-04-15T12:11:37.239Z,750
2018-04-15T12:12:37.467Z,810
2018-04-15T12:13:37.465Z,775
2018-04-15T12:14:37.443Z,770
2018-04-15T12:15:37.485Z,845
2018-04-15T12:16:37.418Z,785
2018-04-15T12:17:37.397Z,760
2018-04-15T12:18:37.393Z,805
2018-04-15T12:19:37.389Z,800
2018-04-15T12:20:37.414Z,780
2018-04-15T12:21:36.602Z,755
2018-04-15T12:22:37.090Z,745
2018-04-15T12:23:36.577Z,760
2018-04-15T12:24:37.067Z,760
2018-04-15T12:25:37.043Z,755
2018-04-15T12:26:37.026Z,750
2018-04-15T12:27:37.273Z,760
2018-04-15T12:28:37.258Z,750
2018-04-15T12:29:37.238Z,775
2018-04-15T12:30:37.223Z,805
2018-04-15T12:31:36.465Z,820
2018-04-15T12:32:37.195Z,845
2018-04-15T12:33:37.252Z,860
2018-04-15T12:34:36.918Z,830
2018-04-15T12:35:37.217Z,820
2018-04-15T12:36:36.899Z,805
2018-04-15T12:37:36.638Z,770
2018-04-15T12:38:37.124Z,765
2018-04-15T12:39:37.702Z,760
2018-04-15T12:40:37.001Z,755
2018-04-15T12:41:37.091Z,755
2018-04-15T12:42:37.070Z,750
2018-04-15T12:43:37.059Z,780
2018-04-15T12:44:37.043Z,785
2018-04-15T12:45:36.775Z,765
2018-04-15T12:46:36.791Z,715
2018-04-15T12:47:36.999Z,730
2018-04-15T12:48:36.495Z,750
2018-04-15T12:49:36.971Z,750
2018-04-15T12:50:36.221Z,735
2018-04-15T12:51:36.457Z,725
2018-04-15T12:52:36.691Z,715
2018-04-15T12:53:37.033Z,705
2018-04-15T12:54:36.912Z,705
2018-04-15T12:55:36.898Z,715
2018-04-15T12:56:36.390Z,720
2018-04-15T12:57:36.893Z,735
2018-04-15T12:58:36.860Z,760
2018-04-15T12:59:36.744Z,760
2018-04-15T13:00:37.848Z,780
2018-04-15T13:01:37.708Z,770
2018-04-15T13:02:36.810Z,750
2018-04-15T13:03:36.798Z,770
2018-04-15T13:04:36.295Z,785
2018-04-15T13:05:36.769Z,745
2018-04-15T13:06:37.226Z,790
2018-04-15T13:07:36.746Z,750
2018-04-15T13:08:36.742Z,745
2018-04-15T13:09:36.718Z,750
2018-04-15T13:10:36.511Z,750
2018-04-15T13:11:36.449Z,790
2018-04-15T13:12:37.887Z,840
2018-04-15T13:13:36.683Z,845
2018-04-15T13:14:36.662Z,800
2018-04-15T13:15:36.659Z,765
2018-04-15T13:16:36.388Z,745
2018-04-15T13:17:36.627Z,730
2018-04-15T13:18:36.365Z,725
2018-04-15T13:19:36.702Z,730
2018-04-15T13:20:36.098Z,710
2018-04-15T13:21:36.333Z,695
2018-04-15T13:22:36.590Z,695
2018-04-15T13:23:36.311Z,640
2018-04-15T13:24:36.546Z,630
2018-04-15T13:25:36.537Z,650
2018-04-15T13:26:36.267Z,695
2018-04-15T13:27:36.268Z,710
2018-04-15T13:28:36.247Z,705
2018-04-15T13:29:36.508Z,690
2018-04-15T13:30:36.472Z,710
2018-04-15T13:31:36.218Z,710
2018-04-15T13:32:36.208Z,705
2018-04-15T13:33:36.441Z,705
2018-04-15T13:34:36.421Z,720
2018-04-15T13:35:36.157Z,700
2018-04-15T13:36:35.906Z,645
2018-04-15T13:37:35.899Z,620
2018-04-15T13:38:36.128Z,660
2018-04-15T13:39:36.370Z,730
2018-04-15T13:40:36.110Z,720
2018-04-15T13:41:36.136Z,665
2018-04-15T13:42:36.333Z,620
2018-04-15T13:43:35.821Z,580
2018-04-15T13:44:36.058Z,555
2018-04-15T13:45:36.291Z,570
2018-04-15T13:46:35.777Z,605
2018-04-15T13:47:36.259Z,655
2018-04-15T13:48:36.009Z,705
2018-04-15T13:49:35.984Z,725
2018-04-15T13:50:36.224Z,755
2018-04-15T13:51:35.970Z,765
2018-04-15T13:52:35.948Z,750
2018-04-15T13:53:35.954Z,740
2018-04-15T13:54:35.964Z,750
2018-04-15T13:55:36.174Z,780
2018-04-15T13:56:36.151Z,810
2018-04-15T13:57:36.142Z,850
2018-04-15T13:58:35.876Z,850
2018-04-15T13:59:36.115Z,825
2018-04-15T14:00:35.854Z,805
2018-04-15T14:01:35.594Z,795
2018-04-15T14:02:36.071Z,860
2018-04-15T14:03:35.862Z,845
2018-04-15T14:04:35.311Z,870
2018-04-15T14:05:36.090Z,885
2018-04-15T14:06:35.777Z,870
2018-04-15T14:07:36.017Z,825
2018-04-15T14:08:36.002Z,790